Time;durP1;ratioP1;P1;durP2;ratioP2;P2;SDS_P1;SDS_P2;PMS_P1;PMS_P2;Temp;Humidity;BMP_temperature;BMP_pressure;BME280_temperature;BME280_humidity;BME280_pressure;Samples;Min_cycle;Max_cycle;Signal;HPM_P1;HPM_P2
2023/10/20 00:00:19;;;;;;;38.42;28.83;;;15.80;99.90;;;15.76;100.00;98359.41;4816596;29;20521;-63
2023/10/20 00:02:47;;;;;;;38.67;28.95;;;15.60;99.90;;;15.74;100.00;98356.00;4817509;29;20492;-63
2023/10/20 00:05:17;;;;;;;37.50;28.23;;;15.60;99.90;;;15.76;100.00;98346.94;4809976;29;20092;-63
2023/10/20 00:07:46;;;;;;;39.42;29.27;;;15.50;99.90;;;15.81;100.00;98347.53;4820792;29;20053;-64
2023/10/20 00:10:15;;;;;;;34.17;27.90;;;15.60;99.90;;;15.77;100.00;98346.00;4798355;29;20095;-64
2023/10/20 00:12:43;;;;;;;36.75;28.50;;;15.60;99.90;;;15.80;100.00;98335.13;4812625;29;20468;-63
2023/10/20 00:15:13;;;;;;;44.67;29.23;;;15.60;99.90;;;15.81;100.00;98349.31;4821323;29;20051;-64
2023/10/20 00:17:43;;;;;;;36.03;28.40;;;15.60;99.90;;;15.80;100.00;98335.13;4811442;29;20050;-64
2023/10/20 00:20:12;;;;;;;38.17;29.05;;;15.60;99.90;;;15.90;100.00;98348.72;4815735;29;20551;-64
2023/10/20 00:22:43;;;;;;;35.55;27.25;;;15.60;99.90;;;15.73;100.00;98340.97;4818905;29;20058;-64
2023/10/20 00:25:12;;;;;;;40.13;27.67;;;15.50;99.90;;;15.76;100.00;98354.94;4809764;29;20055;-64
2023/10/20 00:27:41;;;;;;;34.88;27.67;;;15.50;99.90;;;15.97;100.00;98348.19;4818223;29;20131;-64
2023/10/20 00:30:11;;;;;;;42.72;29.70;;;15.70;99.90;;;15.93;100.00;98353.84;4815952;29;20082;-64
2023/10/20 00:32:41;;;;;;;38.88;29.67;;;15.70;99.90;;;15.93;100.00;98340.53;4810324;29;20127;-64
2023/10/20 00:35:13;;;;;;;37.00;29.23;;;15.70;99.90;;;15.82;100.00;98343.03;4804279;29;20392;-63
2023/10/20 00:37:43;;;;;;;39.40;29.45;;;15.60;99.90;;;15.93;100.00;98343.19;4813019;29;20046;-64
2023/10/20 00:40:13;;;;;;;34.88;29.25;;;15.70;99.90;;;15.89;100.00;98341.69;4812979;29;20050;-63
2023/10/20 00:42:42;;;;;;;38.37;31.23;;;15.70;99.90;;;15.79;100.00;98327.25;4820824;29;20103;-64
2023/10/20 00:45:12;;;;;;;42.55;30.83;;;15.60;99.90;;;15.78;100.00;98329.03;4809989;29;20497;-63
2023/10/20 00:47:40;;;;;;;38.08;31.92;;;15.60;99.90;;;15.88;100.00;98318.63;4812656;29;20051;-64
2023/10/20 00:50:13;;;;;;;38.42;31.38;;;15.70;99.90;;;15.88;100.00;98305.31;4824123;29;20137;-64
2023/10/20 00:52:48;;;;;;;44.80;32.60;;;15.70;99.90;;;16.03;100.00;98298.94;4819060;29;20073;-63
2023/10/20 00:55:19;;;;;;;42.10;33.75;;;15.80;99.90;;;15.91;100.00;98308.63;4818092;29;20126;-64
2023/10/20 00:57:48;;;;;;;42.53;33.72;;;15.70;99.90;;;15.82;100.00;98297.72;4816403;29;20495;-64
2023/10/20 01:00:17;;;;;;;40.38;33.42;;;15.60;99.90;;;15.90;100.00;98300.72;4810398;29;20076;-64
2023/10/20 01:02:45;;;;;;;37.97;32.13;;;15.70;99.90;;;15.85;100.00;98302.84;4820550;29;20070;-64
2023/10/20 01:05:15;;;;;;;40.70;33.42;;;15.60;99.90;;;15.89;100.00;98305.19;4812066;29;20058;-64
2023/10/20 01:07:45;;;;;;;38.03;33.05;;;15.60;99.90;;;15.80;100.00;98315.63;4813338;29;20051;-64
2023/10/20 01:10:14;;;;;;;39.63;32.97;;;15.60;99.90;;;15.56;100.00;98282.59;4803706;29;20069;-64
2023/10/20 01:12:42;;;;;;;39.30;32.88;;;15.60;99.90;;;15.69;100.00;98312.81;4808931;29;20463;-63
2023/10/20 01:15:15;;;;;;;40.30;33.47;;;15.50;99.90;;;15.77;100.00;98290.03;4816833;29;20058;-64
2023/10/20 01:17:44;;;;;;;43.95;34.95;;;15.50;99.90;;;15.78;100.00;98291.75;4817299;29;20052;-63
2023/10/20 01:20:13;;;;;;;41.35;34.35;;;15.50;99.90;;;15.89;100.00;98289.19;4808589;29;20420;-63
2023/10/20 01:22:41;;;;;;;42.55;35.63;;;15.60;99.90;;;15.69;100.00;98294.16;4805712;29;20062;-63
2023/10/20 01:25:12;;;;;;;43.13;36.20;;;15.50;99.90;;;15.46;100.00;98257.53;4812700;29;20042;-63
2023/10/20 01:27:40;;;;;;;43.17;36.10;;;15.40;99.90;;;15.66;100.00;98286.38;4824226;29;20112;-63
2023/10/20 01:30:11;;;;;;;44.50;37.72;;;15.40;99.90;;;15.69;100.00;98273.69;4808530;29;20047;-63
2023/10/20 01:32:42;;;;;;;43.72;36.70;;;15.40;99.90;;;15.78;100.00;98250.91;4806555;29;20459;-63
2023/10/20 01:35:11;;;;;;;43.53;38.40;;;15.50;99.90;;;15.56;100.00;98246.16;4814840;29;20062;-63
2023/10/20 01:37:40;;;;;;;43.80;37.80;;;15.40;99.90;;;15.86;100.00;98241.44;4793925;29;20055;-63
2023/10/20 01:40:12;;;;;;;43.78;38.22;;;15.60;99.90;;;15.94;100.00;98246.25;4820039;29;20046;-63
2023/10/20 01:42:41;;;;;;;46.65;37.47;;;15.70;99.90;;;15.97;100.00;98230.88;4811895;29;20047;-63
2023/10/20 01:45:10;;;;;;;42.88;37.38;;;15.70;99.90;;;15.99;100.00;98226.31;4814518;29;20123;-63
2023/10/20 01:47:40;;;;;;;42.00;36.35;;;15.80;99.90;;;15.86;100.00;98216.59;4823274;29;20107;-63
2023/10/20 01:50:10;;;;;;;48.50;40.40;;;15.60;99.90;;;15.97;100.00;98216.69;4822349;29;20153;-63
2023/10/20 01:52:39;;;;;;;47.95;39.90;;;15.70;99.90;;;15.96;100.00;98207.00;4816292;29;20055;-63
2023/10/20 01:55:10;;;;;;;47.88;39.50;;;15.70;99.90;;;15.75;100.00;98187.16;4816441;29;20082;-63
2023/10/20 01:57:39;;;;;;;47.97;39.00;;;15.70;99.90;;;15.70;100.00;98218.59;4816991;29;20054;-62
2023/10/20 02:00:13;;;;;;;47.25;40.88;;;15.50;99.90;;;15.75;100.00;98200.47;4808238;29;20073;-63
2023/10/20 02:02:43;;;;;;;47.45;39.42;;;15.50;99.90;;;15.77;100.00;98201.22;4807057;29;20062;-63
2023/10/20 02:05:13;;;;;;;45.83;40.38;;;15.60;99.90;;;15.65;100.00;98199.38;4810255;29;20561;-63
2023/10/20 02:07:42;;;;;;;44.63;39.22;;;15.40;99.90;;;15.74;100.00;98175.63;4803716;29;20059;-63
2023/10/20 02:10:12;;;;;;;47.35;40.10;;;15.40;99.90;;;15.72;100.00;98179.34;4794736;29;20149;-63
2023/10/20 02:12:41;;;;;;;48.95;40.05;;;15.50;99.90;;;15.70;100.00;98175.97;4813819;29;20059;-63
2023/10/20 02:15:10;;;;;;;49.38;39.47;;;15.50;99.90;;;15.53;100.00;98173.56;4823415;29;20095;-63
2023/10/20 02:17:38;;;;;;;50.95;40.15;;;15.40;99.90;;;15.56;100.00;98168.91;4792092;29;20054;-63
2023/10/20 02:20:09;;;;;;;52.00;39.83;;;15.40;99.90;;;15.48;100.00;98159.72;4800364;29;20459;-63
2023/10/20 02:22:38;;;;;;;49.97;39.67;;;15.30;99.90;;;15.48;100.00;98160.56;4800583;29;20064;-63
2023/10/20 02:25:08;;;;;;;47.40;40.83;;;15.20;99.90;;;15.52;100.00;98145.22;4811734;29;20447;-63
2023/10/20 02:27:42;;;;;;;51.50;42.05;;;15.30;99.90;;;15.48;100.00;98144.59;4795300;29;20424;-63
2023/10/20 02:30:13;;;;;;;49.97;40.28;;;15.30;99.90;;;15.52;100.00;98139.91;4814633;29;20150;-63
2023/10/20 02:32:44;;;;;;;53.75;41.35;;;15.30;99.90;;;15.58;100.00;98144.81;4826038;29;20054;-63
2023/10/20 02:35:13;;;;;;;50.92;40.85;;;15.30;99.90;;;15.35;100.00;98112.56;4810350;29;20063;-63
2023/10/20 02:37:41;;;;;;;54.53;42.70;;;15.30;99.90;;;15.44;100.00;98147.56;4820904;29;20049;-63
2023/10/20 02:40:13;;;;;;;50.58;40.72;;;15.30;99.90;;;15.48;100.00;98143.72;4816564;29;20572;-63
2023/10/20 02:42:43;;;;;;;51.55;41.75;;;15.20;99.90;;;15.64;100.00;98136.41;4811659;29;20062;-63
2023/10/20 02:45:12;;;;;;;49.00;42.15;;;15.40;99.90;;;15.57;100.00;98143.09;4822242;29;20054;-63
2023/10/20 02:47:40;;;;;;;56.50;43.45;;;15.30;99.90;;;15.38;100.00;98120.34;4797594;29;20089;-62
2023/10/20 02:50:10;;;;;;;54.42;40.80;;;15.20;99.90;;;15.34;100.00;98110.88;4815875;29;20047;-62
2023/10/20 02:52:39;;;;;;;52.85;43.42;;;15.30;99.90;;;15.35;100.00;98112.56;4821775;29;20493;-63
2023/10/20 02:55:08;;;;;;;55.17;41.55;;;15.10;99.90;;;15.31;100.00;98112.91;4795003;29;20057;-63
2023/10/20 02:57:37;;;;;;;53.50;43.13;;;15.10;99.90;;;15.30;100.00;98122.69;4819080;29;20059;-63
2023/10/20 03:00:11;;;;;;;54.47;42.38;;;15.00;99.90;;;15.50;100.00;98112.53;4802260;29;20070;-63
2023/10/20 03:02:39;;;;;;;55.42;43.28;;;15.20;99.90;;;15.43;100.00;98092.59;4821638;29;20142;-63
2023/10/20 03:05:09;;;;;;;51.08;42.03;;;15.30;99.90;;;15.50;100.00;98088.53;4821565;29;20058;-63
2023/10/20 03:07:38;;;;;;;49.97;41.70;;;15.30;99.90;;;15.43;100.00;98095.25;4799394;29;20154;-63
2023/10/20 03:10:08;;;;;;;53.75;40.75;;;15.30;99.90;;;15.31;100.00;98088.94;4813684;29;20540;-63
2023/10/20 03:12:36;;;;;;;58.05;41.85;;;15.20;99.90;;;15.21;100.00;98086.00;4806181;29;20660;-63
2023/10/20 03:15:10;;;;;;;56.25;42.35;;;15.00;99.90;;;15.19;100.00;98074.59;4812183;29;20056;-63
2023/10/20 03:17:39;;;;;;;51.05;42.33;;;15.00;99.90;;;15.36;100.00;98076.13;4816342;29;20055;-63
2023/10/20 03:20:09;;;;;;;53.53;42.47;;;15.10;99.90;;;15.30;100.00;98066.75;4820380;29;20073;-63
2023/10/20 03:22:37;;;;;;;57.25;44.75;;;15.10;99.90;;;15.35;100.00;98069.09;4823135;29;20058;-63
2023/10/20 03:25:08;;;;;;;53.63;42.55;;;15.10;99.90;;;15.49;100.00;98069.03;4809003;29;20055;-63
2023/10/20 03:27:37;;;;;;;55.80;43.03;;;15.30;99.90;;;15.65;100.00;98071.50;4817439;29;20054;-63
2023/10/20 03:30:09;;;;;;;54.40;45.05;;;15.40;99.90;;;15.33;100.00;98071.88;4811353;29;20081;-63
2023/10/20 03:32:37;;;;;;;59.08;46.13;;;15.20;99.90;;;15.44;100.00;98057.00;4808808;29;20058;-63
2023/10/20 03:35:08;;;;;;;55.47;45.42;;;15.20;99.90;;;15.43;100.00;98066.78;4817035;29;20058;-63
2023/10/20 03:37:38;;;;;;;55.25;45.30;;;15.20;99.90;;;15.53;100.00;98057.22;4818404;29;20511;-63
2023/10/20 03:40:13;;;;;;;55.40;46.00;;;15.30;99.90;;;15.53;100.00;98075.00;4810071;29;20062;-63
2023/10/20 03:42:44;;;;;;;59.08;45.78;;;15.30;99.90;;;15.33;100.00;98058.56;4808080;29;20057;-63
2023/10/20 03:45:15;;;;;;;59.58;45.30;;;15.10;99.90;;;15.31;100.00;98055.13;4815732;29;20059;-63
2023/10/20 03:47:45;;;;;;;59.08;47.22;;;15.10;99.90;;;15.30;100.00;98045.47;4819785;29;20451;-63
2023/10/20 03:50:15;;;;;;;55.50;45.80;;;15.10;99.90;;;15.48;100.00;98023.88;4810234;29;20055;-63
2023/10/20 03:52:47;;;;;;;60.55;46.50;;;15.20;99.90;;;15.30;100.00;98028.63;4818569;29;20043;-63
2023/10/20 03:55:16;;;;;;;61.45;48.88;;;15.10;99.90;;;15.43;100.00;98024.16;4817286;29;20058;-63
2023/10/20 03:57:47;;;;;;;60.20;47.67;;;15.20;99.90;;;15.25;100.00;98020.94;4810799;29;20059;-63
2023/10/20 04:00:20;;;;;;;63.28;47.75;;;15.10;99.90;;;15.51;100.00;98026.31;4794052;29;20065;-63
2023/10/20 04:02:51;;;;;;;61.20;47.05;;;15.30;99.90;;;15.56;100.00;98018.84;4816768;29;20493;-63
2023/10/20 04:05:20;;;;;;;63.50;49.17;;;15.30;99.90;;;15.68;100.00;98010.00;4802437;29;20558;-63
2023/10/20 04:07:49;;;;;;;67.38;50.50;;;15.50;99.90;;;15.73;100.00;98003.38;4810075;29;20418;-63
2023/10/20 04:10:19;;;;;;;60.00;48.33;;;15.50;99.90;;;15.60;100.00;98004.38;4819980;29;20082;-63
2023/10/20 04:12:49;;;;;;;64.07;50.72;;;15.50;99.90;;;15.57;100.00;97999.22;4815419;29;20161;-62
2023/10/20 04:15:19;;;;;;;66.88;52.08;;;15.40;99.90;;;15.42;100.00;97992.31;4811776;29;20472;-63
2023/10/20 04:17:52;;;;;;;63.30;48.35;;;15.30;99.90;;;15.55;100.00;97980.69;4821126;29;20129;-63
2023/10/20 04:20:23;;;;;;;67.07;51.13;;;15.40;99.90;;;15.57;100.00;97992.09;4812654;29;20058;-63
2023/10/20 04:22:52;;;;;;;71.93;51.13;;;15.40;99.90;;;15.23;100.00;97961.59;4813421;29;20121;-63
2023/10/20 04:25:22;;;;;;;69.40;52.00;;;15.30;99.90;;;15.31;100.00;97977.09;4803783;29;20481;-63
2023/10/20 04:27:54;;;;;;;67.82;50.72;;;15.20;99.90;;;15.27;100.00;97999.56;4809266;29;20048;-63
2023/10/20 04:58:23;;;;;;;70.45;51.20;;;14.80;99.90;;;15.14;100.00;97958.75;4799838;29;20063;-63
2023/10/20 05:01:03;;;;;;;69.10;49.20;;;14.90;99.90;;;15.05;100.00;97943.41;4804258;29;20051;-62
2023/10/20 05:03:45;;;;;;;70.43;49.58;;;14.90;99.90;;;14.94;100.00;97938.81;4810643;29;20047;-63
2023/10/20 05:06:27;;;;;;;75.70;50.10;;;14.80;99.90;;;14.30;100.00;97828.00;4813386;29;20046;-63
2023/10/20 05:08:56;;;;;;;71.88;49.80;;;14.80;99.90;;;15.04;100.00;97931.06;4820700;29;20489;-63
2023/10/20 05:11:24;;;;;;;70.65;48.25;;;14.80;99.90;;;15.10;100.00;97935.94;4810446;29;20054;-63
2023/10/20 05:13:53;;;;;;;72.53;47.75;;;14.90;99.90;;;14.89;100.00;97914.34;4815177;29;20538;-63
2023/10/20 05:16:25;;;;;;;73.03;47.13;;;14.70;99.90;;;14.85;100.00;97904.88;4817894;29;20053;-63
2023/10/20 05:18:56;;;;;;;70.78;48.53;;;14.70;99.90;;;14.95;100.00;97897.94;4808310;29;20057;-63
2023/10/20 05:21:25;;;;;;;67.85;46.25;;;14.70;99.90;;;15.02;100.00;97885.91;4817978;29;20106;-63
2023/10/20 05:23:53;;;;;;;68.75;46.63;;;14.80;99.90;;;14.99;100.00;97886.13;4798799;29;20095;-63
2023/10/20 05:26:23;;;;;;;70.45;46.33;;;14.80;99.90;;;15.01;100.00;97870.91;4809379;29;20047;-63
2023/10/20 05:28:52;;;;;;;69.28;46.30;;;14.80;99.90;;;14.92;100.00;97876.91;4803770;29;20046;-63
2023/10/20 05:31:24;;;;;;;72.32;45.15;;;14.80;99.90;;;14.90;100.00;97878.81;4811734;29;20057;-63
2023/10/20 05:33:54;;;;;;;64.47;44.20;;;14.70;99.90;;;14.94;100.00;97882.09;4812250;29;20049;-63
2023/10/20 05:36:23;;;;;;;66.13;43.87;;;14.80;99.90;;;14.89;100.00;97887.72;4820040;29;20099;-63
2023/10/20 05:38:52;;;;;;;66.28;42.28;;;14.70;99.90;;;14.95;100.00;97884.66;4808920;29;20328;-63
2023/10/20 05:41:21;;;;;;;66.95;43.58;;;14.80;99.90;;;15.11;100.00;97895.94;4815382;29;20134;-64
2023/10/20 05:43:52;;;;;;;65.47;42.05;;;14.90;99.90;;;15.15;100.00;97875.25;4816650;29;20092;-63
2023/10/20 05:46:21;;;;;;;69.22;42.65;;;14.90;99.90;;;15.16;100.00;97883.13;4808501;29;20389;-64
2023/10/20 05:48:50;;;;;;;60.85;40.80;;;15.00;99.90;;;15.09;100.00;97865.03;4818271;29;20121;-64
2023/10/20 05:51:21;;;;;;;63.38;39.88;;;15.00;99.90;;;14.97;100.00;97880.06;4813665;29;20531;-64
2023/10/20 05:53:49;;;;;;;58.60;38.45;;;14.80;99.90;;;14.81;100.00;97875.91;4811026;29;20059;-64
2023/10/20 05:56:18;;;;;;;59.38;38.30;;;14.60;99.90;;;14.66;100.00;97871.66;4820289;29;20050;-63
2023/10/20 05:58:46;;;;;;;61.67;40.05;;;14.50;99.90;;;13.90;100.00;97774.97;4813392;29;20050;-63
2023/10/20 06:01:17;;;;;;;64.22;40.70;;;14.40;99.90;;;14.36;100.00;97871.94;4801392;29;20078;-63
2023/10/20 06:03:46;;;;;;;58.22;37.85;;;14.30;99.90;;;14.40;100.00;97871.63;4821936;29;20051;-63
2023/10/20 06:06:15;;;;;;;59.85;39.92;;;14.30;99.90;;;14.48;100.00;97873.75;4795424;29;20055;-64
2023/10/20 06:08:45;;;;;;;58.13;39.50;;;14.30;99.90;;;14.25;100.00;97877.09;4820300;29;20442;-63
2023/10/20 06:11:13;;;;;;;61.45;39.03;;;14.10;99.90;;;13.82;100.00;97785.28;4818665;29;20042;-64
2023/10/20 06:13:42;;;;;;;61.38;38.88;;;14.00;99.90;;;13.96;100.00;97884.34;4812869;29;20055;-63
2023/10/20 06:16:11;;;;;;;57.72;37.50;;;13.90;99.90;;;14.00;100.00;97888.50;4806744;29;20128;-63
2023/10/20 06:18:44;;;;;;;59.78;38.10;;;13.80;99.90;;;13.86;100.00;97854.00;4815234;29;20087;-63
2023/10/20 06:21:14;;;;;;;57.97;37.00;;;13.80;99.90;;;13.23;100.00;97763.50;4815114;29;20058;-63
2023/10/20 06:23:45;;;;;;;56.85;37.97;;;13.70;99.90;;;13.78;100.00;97866.13;4822957;29;20058;-64
2023/10/20 06:26:14;;;;;;;55.17;36.50;;;13.70;99.90;;;13.98;100.00;97863.84;4812471;29;20121;-64
2023/10/20 06:28:43;;;;;;;54.95;37.30;;;13.80;99.90;;;13.64;100.00;97860.84;4817454;29;20051;-63
2023/10/20 06:31:37;;;;;;;55.45;35.95;;;13.70;99.90;;;13.82;100.00;97867.63;4804114;29;20493;-63
2023/10/20 06:34:17;;;;;;;54.75;35.58;;;13.70;99.90;;;13.70;100.00;97900.28;4812197;29;20472;-65
2023/10/20 06:36:48;;;;;;;50.53;34.60;;;13.60;99.90;;;13.04;100.00;97767.44;4816415;29;20472;-63
2023/10/20 06:39:20;;;;;;;51.80;34.10;;;13.50;99.90;;;13.83;100.00;97842.75;4821415;29;20408;-63
2023/10/20 06:41:49;;;;;;;52.35;33.03;;;13.60;99.90;;;13.59;100.00;97856.66;4811057;29;20050;-63
2023/10/20 06:44:20;;;;;;;52.95;33.72;;;13.60;99.90;;;13.69;100.00;97854.28;4802306;29;20050;-63
2023/10/20 06:46:51;;;;;;;48.10;31.95;;;13.60;99.90;;;13.53;100.00;97851.75;4818678;29;20479;-63
2023/10/20 06:49:19;;;;;;;47.15;32.67;;;13.40;99.90;;;13.45;100.00;97864.66;4810853;29;20047;-63
2023/10/20 06:51:49;;;;;;;43.50;30.55;;;13.30;99.90;;;13.77;100.00;97861.72;4821405;29;20057;-63
2023/10/20 06:54:19;;;;;;;44.55;29.85;;;13.50;99.90;;;13.82;100.00;97857.81;4799354;29;20050;-63
2023/10/20 06:56:48;;;;;;;41.60;29.65;;;13.60;99.90;;;13.56;100.00;97862.19;4814028;29;20042;-64
2023/10/20 06:59:17;;;;;;;41.28;28.67;;;13.40;99.90;;;13.64;100.00;97859.03;4822387;29;20123;-64
2023/10/20 07:01:45;;;;;;;41.28;28.02;;;13.50;99.90;;;13.72;100.00;97861.19;4796107;29;20077;-63
2023/10/20 07:04:14;;;;;;;37.35;26.60;;;13.60;99.90;;;13.73;100.00;97868.19;4817146;29;20086;-63
2023/10/20 07:06:43;;;;;;;35.10;24.98;;;13.60;99.90;;;13.91;100.00;97867.88;4819787;29;20115;-63
2023/10/20 07:09:14;;;;;;;35.78;25.63;;;13.70;99.90;;;13.69;100.00;97861.38;4810086;29;20126;-62
2023/10/20 07:11:45;;;;;;;34.58;25.35;;;13.60;99.90;;;13.83;100.00;97856.88;4819388;29;20051;-62
2023/10/20 07:14:13;;;;;;;38.42;25.83;;;13.60;99.90;;;13.79;100.00;97850.06;4816687;29;20054;-63
2023/10/20 07:16:42;;;;;;;35.17;25.38;;;13.70;99.90;;;13.77;100.00;97832.50;4811607;29;20116;-61
2023/10/20 07:19:11;;;;;;;32.22;23.90;;;13.60;99.90;;;13.75;100.00;97839.72;4822028;29;20064;-63
2023/10/20 07:21:40;;;;;;;32.92;23.35;;;13.60;99.90;;;13.68;100.00;97841.09;4813388;29;20046;-62
2023/10/20 07:24:09;;;;;;;32.75;24.33;;;13.50;99.90;;;13.76;100.00;97842.31;4814946;29;20078;-62
2023/10/20 07:26:37;;;;;;;32.28;22.40;;;13.60;99.90;;;13.85;100.00;97844.34;4821008;29;20042;-62
2023/10/20 07:29:07;;;;;;;28.67;22.10;;;13.70;99.90;;;13.84;100.00;97828.53;4810667;29;20126;-65
2023/10/20 07:31:39;;;;;;;23.23;18.65;;;13.70;99.90;;;13.99;100.00;97831.00;4818027;29;20051;-63
2023/10/20 07:34:09;;;;;;;24.80;18.95;;;13.80;99.90;;;13.83;100.00;97829.47;4817900;29;20058;-67
2023/10/20 07:36:38;;;;;;;27.45;19.77;;;13.70;99.90;;;13.92;100.00;97842.13;4810160;29;20170;-64
2023/10/20 07:39:08;;;;;;;22.90;17.90;;;13.80;99.90;;;14.05;100.00;97835.88;4820771;29;20046;-64
2023/10/20 07:41:37;;;;;;;25.52;18.80;;;13.90;99.90;;;13.96;100.00;97841.81;4814946;29;20064;-64
2023/10/20 07:44:08;;;;;;;23.55;17.85;;;13.80;99.90;;;13.96;100.00;97841.81;4813102;29;20050;-63
2023/10/20 07:46:37;;;;;;;24.30;18.38;;;13.80;99.90;;;13.94;100.00;97842.88;4821977;29;20086;-63
2023/10/20 07:49:06;;;;;;;24.52;18.85;;;13.80;99.90;;;13.90;100.00;97838.75;4811712;29;20058;-63
2023/10/20 07:51:34;;;;;;;22.45;18.27;;;13.80;99.90;;;14.05;100.00;97829.75;4816327;29;20051;-63
2023/10/20 07:54:03;;;;;;;23.73;18.33;;;13.80;99.90;;;13.95;100.00;97815.38;4819080;29;20074;-64
2023/10/20 07:56:32;;;;;;;20.73;16.95;;;13.80;99.90;;;13.97;100.00;97818.78;4809982;29;20558;-63
2023/10/20 07:59:00;;;;;;;21.75;16.83;;;13.80;99.90;;;13.89;100.00;97810.47;4819539;29;20107;-63
2023/10/20 08:01:30;;;;;;;17.98;15.00;;;13.70;99.90;;;13.76;100.00;97822.84;4816332;29;20057;-63
2023/10/20 08:03:59;;;;;;;16.38;14.30;;;13.70;99.90;;;13.70;100.00;97805.53;4811609;29;20151;-63
2023/10/20 08:06:28;;;;;;;18.08;14.40;;;13.60;99.90;;;13.64;100.00;97803.28;4821226;29;20053;-63
2023/10/20 08:08:56;;;;;;;16.77;14.10;;;13.50;99.90;;;13.51;100.00;97800.56;4812360;29;20050;-64
2023/10/20 08:11:25;;;;;;;14.70;13.15;;;13.40;99.90;;;13.30;100.00;97790.47;4814712;29;20050;-63
2023/10/20 08:13:55;;;;;;;15.90;12.60;;;13.20;99.90;;;13.48;100.00;97779.53;4803890;29;20509;-64
2023/10/20 08:16:23;;;;;;;15.40;13.15;;;13.30;99.90;;;13.54;100.00;97783.56;4822577;29;20579;-62
2023/10/20 08:18:53;;;;;;;13.98;12.48;;;13.40;99.90;;;13.21;100.00;97730.91;4817734;29;20133;-62
2023/10/20 08:21:26;;;;;;;16.48;13.05;;;13.40;99.90;;;13.61;100.00;97805.28;4816362;29;20055;-63
2023/10/20 08:23:54;;;;;;;14.55;12.30;;;13.40;99.90;;;13.56;100.00;97806.44;4809475;29;20070;-63
2023/10/20 08:26:23;;;;;;;14.88;11.82;;;13.40;99.90;;;13.52;100.00;97789.00;4820451;29;20090;-63
2023/10/20 08:28:51;;;;;;;13.60;11.82;;;13.40;99.90;;;13.43;100.00;97775.47;4813915;29;20056;-62
2023/10/20 08:31:21;;;;;;;12.32;10.98;;;13.30;99.90;;;13.08;100.00;97787.50;4812396;29;20051;-63
2023/10/20 08:33:52;;;;;;;13.75;11.50;;;13.00;99.90;;;13.39;100.00;97784.59;4820782;29;20053;-62
2023/10/20 08:36:22;;;;;;;15.80;12.30;;;13.20;99.90;;;13.54;100.00;97779.13;4810357;29;20054;-62
2023/10/20 08:38:52;;;;;;;16.08;12.48;;;13.30;99.90;;;13.35;100.00;97793.69;4819955;29;20062;-63
2023/10/20 08:41:22;;;;;;;13.73;11.65;;;13.20;99.90;;;13.48;100.00;97786.63;4818672;29;20111;-63
2023/10/20 08:43:52;;;;;;;14.40;11.45;;;13.30;99.90;;;13.47;100.00;97793.75;4809181;29;20073;-68
2023/10/20 08:46:22;;;;;;;13.73;11.60;;;13.30;99.90;;;13.36;100.00;97790.94;4807220;29;20058;-63
2023/10/20 08:48:51;;;;;;;;;;;13.20;99.90;;;13.42;100.00;97785.22;4815888;29;20129;-63
2023/10/20 08:51:21;;;;;;;15.43;11.05;;;13.30;99.90;;;13.29;100.00;97773.72;4810564;29;20425;-62
2023/10/20 08:53:49;;;;;;;13.25;10.57;;;13.20;99.90;;;12.90;100.00;97783.31;4820326;29;20046;-63
2023/10/20 08:56:18;;;;;;;13.20;11.65;;;12.90;99.90;;;13.30;100.00;97796.63;4811906;29;20134;-65
2023/10/20 08:58:47;;;;;;;16.60;12.40;;;13.10;99.90;;;13.34;100.00;97774.25;4813391;29;20131;-65
2023/10/20 09:01:17;;;;;;;13.90;11.50;;;13.10;99.90;;;13.21;100.00;97788.41;4819579;29;20059;-64
2023/10/20 09:03:50;;;;;;;13.68;11.30;;;13.10;99.90;;;13.15;100.00;97784.38;4809118;29;20066;-64
2023/10/20 09:06:19;;;;;;;11.88;10.48;;;13.00;99.90;;;13.14;100.00;97787.13;4819567;29;20055;-64
2023/10/20 09:08:50;;;;;;;14.32;10.32;;;13.00;99.90;;;13.13;100.00;97767.69;4816765;29;20068;-65
2023/10/20 09:11:24;;;;;;;11.98;10.10;;;13.00;99.90;;;13.02;100.00;97777.25;4808581;29;20108;-64
2023/10/20 09:13:53;;;;;;;12.10;9.85;;;12.90;99.90;;;12.94;100.00;97787.50;4817455;29;20509;-64
2023/10/20 09:16:23;;;;;;;13.15;9.95;;;12.80;99.90;;;12.69;100.00;97789.06;4814516;29;20528;-64
2023/10/20 09:18:54;;;;;;;14.18;10.55;;;12.60;99.90;;;12.76;100.00;97778.03;4819214;29;20089;-65
2023/10/20 09:21:25;;;;;;;11.77;9.82;;;12.60;99.90;;;12.70;100.00;97780.13;4820176;29;20110;-64
2023/10/20 09:23:57;;;;;;;12.75;9.55;;;12.60;99.90;;;12.74;100.00;97759.56;4811998;29;20073;-64
2023/10/20 09:26:27;;;;;;;12.40;9.93;;;12.60;99.90;;;12.80;100.00;97756.53;4819115;29;20062;-65
2023/10/20 09:28:57;;;;;;;14.43;9.98;;;12.60;99.90;;;12.96;100.00;97757.28;4820027;29;20046;-64
2023/10/20 09:31:28;;;;;;;12.38;9.70;;;12.80;99.90;;;12.96;100.00;97757.28;4821033;29;20047;-64
2023/10/20 09:33:57;;;;;;;13.80;8.90;;;12.80;99.90;;;12.92;100.00;97765.53;4816866;29;20115;-64
2023/10/20 09:36:26;;;;;;;9.30;8.10;;;12.80;99.90;;;12.76;100.00;97743.56;4815483;29;20054;-64
2023/10/20 09:38:58;;;;;;;9.55;8.38;;;12.70;99.90;;;12.70;100.00;97758.91;4823535;29;20065;-64
2023/10/20 09:41:28;;;;;;;10.52;7.82;;;12.60;99.90;;;12.51;100.00;97752.22;4813953;29;20136;-64
2023/10/20 09:44:06;;;;;;;8.68;7.53;;;12.40;99.90;;;12.39;100.00;97748.50;4818257;29;20054;-64
2023/10/20 09:46:54;;;;;;;10.13;7.65;;;12.40;99.90;;;12.24;100.00;97717.66;4823323;29;20549;-64
2023/10/20 09:49:25;;;;;;;9.80;7.85;;;12.30;99.90;;;12.08;100.00;97732.78;4814305;29;20095;-64
2023/10/20 09:51:56;;;;;;;11.98;7.97;;;12.10;99.90;;;12.18;100.00;97744.53;4816992;29;20047;-64
2023/10/20 09:54:29;;;;;;;;;;;12.00;99.90;;;12.18;100.00;97726.00;4822470;29;20122;-64
2023/10/20 09:56:59;;;;;;;7.88;6.70;;;12.10;99.90;;;11.38;100.00;97619.66;4811637;29;19956;-64
2023/10/20 09:59:30;;;;;;;8.32;6.78;;;12.00;99.90;;;12.03;100.00;97744.59;4819081;29;20462;-64
2023/10/20 10:02:00;;;;;;;7.15;6.45;;;11.80;99.90;;;11.99;100.00;97748.38;4819545;29;20515;-63
2023/10/20 10:04:36;;;;;;;9.00;6.70;;;11.90;99.90;;;12.05;100.00;97724.19;4811872;29;20058;-64
2023/10/20 10:07:09;;;;;;;7.20;6.50;;;11.90;99.90;;;11.86;100.00;97742.97;4820679;29;20054;-64
2023/10/20 10:09:43;;;;;;;7.00;6.30;;;11.70;99.90;;;11.83;100.00;97743.16;4818044;29;20073;-64
2023/10/20 10:12:17;;;;;;;7.03;6.32;;;11.70;99.90;;;11.58;100.00;97727.84;4812132;29;20043;-64
2023/10/20 10:14:56;;;;;;;7.28;5.63;;;11.60;99.90;;;11.67;100.00;97727.31;4822711;29;20107;-64
2023/10/20 10:17:26;;;;;;;7.65;6.03;;;11.60;99.90;;;11.88;100.00;97741.09;4816662;29;20443;-64
2023/10/20 10:19:56;;;;;;;6.68;6.00;;;11.70;99.90;;;12.03;100.00;97723.41;4813836;29;20058;-64
2023/10/20 10:22:28;;;;;;;7.47;5.20;;;11.90;99.90;;;12.03;100.00;97734.00;4822833;29;20103;-64
2023/10/20 10:25:01;;;;;;;5.88;5.30;;;11.90;99.90;;;11.78;100.00;97718.75;4813876;29;20043;-64
2023/10/20 10:27:32;;;;;;;5.85;5.28;;;11.70;99.90;;;11.85;100.00;97725.38;4815581;29;20055;-66
2023/10/20 10:30:05;;;;;;;5.57;5.07;;;11.70;99.90;;;11.90;100.00;97722.47;4822424;29;20050;-64
2023/10/20 10:32:44;;;;;;;6.88;5.40;;;11.70;99.90;;;11.76;100.00;97718.84;4812004;29;20153;-65
2023/10/20 10:35:17;;;;;;;7.68;5.63;;;11.60;99.90;;;11.82;100.00;97725.56;4816661;29;20126;-64
2023/10/20 10:37:47;;;;;;;5.90;5.10;;;11.70;99.90;;;11.77;100.00;97717.03;4805360;29;20438;-65
2023/10/20 10:40:21;;;;;;;5.10;4.70;;;11.70;99.90;;;11.30;100.00;97687.22;4811383;29;20448;-65
2023/10/20 10:42:52;;;;;;;6.05;5.35;;;11.50;99.90;;;11.61;100.00;97706.47;4818517;29;20062;-67